Time;durP1;ratioP1;P1;durP2;ratioP2;P2;SDS_P1;SDS_P2;PMS_P1;PMS_P2;Temp;Humidity;BMP_temperature;BMP_pressure;BME280_temperature;BME280_humidity;BME280_pressure;Samples;Min_cycle;Max_cycle;Signal;HPM_P1;HPM_P2
2022/04/23 00:00:34;;;;;;;13.10;12.60;;;20.90;54.20;;;;;;4992599;28;20447;-44
2022/04/23 00:03:01;;;;;;;12.73;12.23;;;20.90;54.20;;;;;;4992630;28;20452;-42
2022/04/23 00:05:29;;;;;;;12.90;12.40;;;20.80;54.20;;;;;;4992638;28;20447;-44
2022/04/23 00:07:55;;;;;;;12.53;12.13;;;20.80;54.20;;;;;;4992374;28;20450;-42
2022/04/23 00:10:23;;;;;;;12.63;12.13;;;20.80;54.30;;;;;;4992642;28;20813;-45
2022/04/23 00:12:54;;;;;;;13.57;13.07;;;20.80;54.20;;;;;;4992510;28;20578;-44
2022/04/23 00:15:21;;;;;;;12.87;12.40;;;20.80;54.20;;;;;;4992416;28;20551;-44
2022/04/23 00:17:48;;;;;;;13.20;12.70;;;20.80;54.20;;;;;;4992299;28;20447;-45
2022/04/23 00:20:16;;;;;;;13.00;12.50;;;20.80;54.10;;;;;;4994568;28;20447;-45
2022/04/23 00:22:43;;;;;;;12.30;11.90;;;20.80;54.20;;;;;;4997474;28;20471;-45
2022/04/23 00:25:11;;;;;;;13.87;13.37;;;20.90;54.50;;;;;;4991923;28;20442;-45
2022/04/23 00:27:37;;;;;;;13.10;12.60;;;20.90;54.70;;;;;;4992106;28;20450;-45
2022/04/23 00:30:07;;;;;;;13.10;12.60;;;21.00;54.80;;;;;;5008252;28;20465;-45
2022/04/23 00:32:33;;;;;;;13.13;12.60;;;21.00;54.80;;;;;;5011754;28;21026;-43
2022/04/23 00:35:00;;;;;;;12.73;12.23;;;21.00;55.00;;;;;;5011922;28;20462;-43
2022/04/23 00:37:27;;;;;;;13.53;13.03;;;20.90;55.10;;;;;;5011636;28;20450;-43
2022/04/23 00:39:54;;;;;;;12.43;11.90;;;20.80;55.10;;;;;;4997035;28;20451;-43
2022/04/23 00:42:20;;;;;;;12.63;12.13;;;20.80;55.20;;;;;;5072306;23;20502;-49
2022/04/23 00:44:47;;;;;;;13.20;12.63;;;20.70;55.10;;;;;;5075053;28;20465;-47
2022/04/23 00:47:15;;;;;;;11.83;11.33;;;20.70;55.30;;;;;;5076023;28;20447;-47
2022/04/23 00:49:42;;;;;;;13.40;12.80;;;20.70;55.10;;;;;;5089386;28;21014;-49
2022/04/23 00:52:09;;;;;;;12.90;12.30;;;20.70;55.10;;;;;;5096184;28;20458;-49
2022/04/23 00:54:38;;;;;;;14.17;13.37;;;20.70;55.00;;;;;;5095351;28;20442;-48
2022/04/23 00:57:07;;;;;;;13.27;12.67;;;20.70;55.00;;;;;;5095215;28;20449;-49
2022/04/23 00:59:34;;;;;;;13.37;12.77;;;20.70;55.10;;;;;;5083339;28;21032;-47
2022/04/23 01:02:03;;;;;;;12.33;11.73;;;20.70;55.00;;;;;;5076059;28;20455;-47
2022/04/23 01:04:31;;;;;;;13.13;12.63;;;20.60;55.00;;;;;;5076052;28;20455;-50
2022/04/23 01:06:59;;;;;;;13.40;12.90;;;20.60;55.00;;;;;;5076367;28;20451;-49
2022/04/23 01:09:25;;;;;;;13.23;12.67;;;20.60;55.00;;;;;;5076212;28;20455;-49
2022/04/23 01:11:54;;;;;;;11.87;11.47;;;20.60;54.90;;;;;;5076297;28;20494;-49
2022/04/23 01:14:21;;;;;;;13.20;12.70;;;20.60;55.00;;;;;;5075893;28;20870;-49
2022/04/23 01:16:48;;;;;;;13.50;12.80;;;20.60;55.00;;;;;;5075836;28;20451;-48
2022/04/23 01:19:15;;;;;;;12.70;12.23;;;20.60;55.00;;;;;;5084146;28;20439;-49
2022/04/23 01:21:43;;;;;;;12.90;12.37;;;20.60;55.00;;;;;;5095836;28;20458;-50
2022/04/23 01:24:10;;;;;;;13.20;12.73;;;20.60;55.00;;;;;;5085913;28;20440;-49
2022/04/23 01:26:37;;;;;;;13.53;12.93;;;20.60;54.90;;;;;;5075837;28;20454;-49
2022/04/23 01:29:04;;;;;;;13.30;12.80;;;20.50;55.00;;;;;;5083429;28;20450;-49
2022/04/23 01:31:31;;;;;;;13.07;12.53;;;20.50;55.10;;;;;;5082500;28;20467;-47
2022/04/23 01:33:57;;;;;;;13.40;12.90;;;20.50;55.10;;;;;;5076502;28;20479;-47
2022/04/23 01:36:24;;;;;;;12.30;11.90;;;20.50;55.10;;;;;;5076974;28;20443;-49
2022/04/23 01:38:52;;;;;;;12.90;12.40;;;20.50;55.00;;;;;;5084455;28;20442;-47
2022/04/23 01:41:19;;;;;;;13.47;12.97;;;20.50;55.10;;;;;;5099568;28;20931;-47
2022/04/23 01:43:46;;;;;;;12.53;12.03;;;20.50;55.00;;;;;;5100126;28;20434;-49
2022/04/23 01:46:13;;;;;;;13.37;12.77;;;20.50;55.10;;;;;;5099540;28;20454;-47
2022/04/23 01:48:39;;;;;;;11.90;11.40;;;20.50;55.20;;;;;;5097422;28;20447;-49
2022/04/23 01:51:07;;;;;;;13.53;13.03;;;20.50;55.20;;;;;;5098923;28;20447;-47
2022/04/23 01:53:33;;;;;;;12.87;12.23;;;20.50;55.20;;;;;;5099223;28;20478;-47
2022/04/23 01:56:01;;;;;;;13.00;12.30;;;20.50;55.10;;;;;;5099995;28;20450;-49
2022/04/23 01:58:28;;;;;;;12.87;12.37;;;20.50;55.10;;;;;;5097202;28;20447;-49
2022/04/23 02:00:55;;;;;;;13.00;12.43;;;20.40;55.00;;;;;;5078951;28;20956;-49
2022/04/23 02:03:22;;;;;;;12.50;12.10;;;20.50;55.20;;;;;;5079243;28;20478;-47
2022/04/23 02:05:49;;;;;;;12.90;12.40;;;20.40;55.10;;;;;;5079457;28;20448;-47
2022/04/23 02:08:17;;;;;;;12.13;11.73;;;20.40;55.10;;;;;;5079852;28;20448;-49
2022/04/23 02:10:45;;;;;;;12.40;12.00;;;20.40;55.10;;;;;;5100205;28;20447;-49
2022/04/23 02:13:13;;;;;;;12.63;12.13;;;20.40;55.20;;;;;;5100463;28;20488;-47
2022/04/23 02:15:41;;;;;;;13.27;12.77;;;20.40;55.20;;;;;;5100319;28;20442;-47
2022/04/23 02:18:08;;;;;;;13.17;12.67;;;20.40;55.10;;;;;;5100451;28;20892;-47
2022/04/23 02:20:35;;;;;;;13.60;13.10;;;20.40;55.20;;;;;;5080995;28;20522;-52
2022/04/23 02:23:02;;;;;;;12.80;12.30;;;20.40;55.20;;;;;;5079133;28;20459;-49
2022/04/23 02:25:29;;;;;;;13.70;13.10;;;20.40;55.20;;;;;;5080283;28;20455;-49
2022/04/23 02:27:56;;;;;;;11.80;11.40;;;20.40;55.20;;;;;;5089024;28;20447;-50
2022/04/23 02:30:24;;;;;;;12.90;12.40;;;20.40;55.10;;;;;;5101647;28;20446;-49
2022/04/23 02:32:50;;;;;;;13.17;12.57;;;20.40;55.70;;;;;;5102194;28;20482;-52
2022/04/23 02:35:19;;;;;;;13.00;12.50;;;20.40;55.20;;;;;;5101992;28;20451;-52
2022/04/23 02:37:48;;;;;;;11.87;11.47;;;20.30;55.20;;;;;;5093566;28;20520;-50
2022/04/23 02:40:16;;;;;;;12.57;12.07;;;20.30;55.20;;;;;;5080980;28;20448;-48
2022/04/23 02:42:43;;;;;;;13.07;12.57;;;20.30;55.10;;;;;;5080620;28;20471;-50
2022/04/23 02:45:11;;;;;;;13.30;12.80;;;20.30;55.10;;;;;;5080388;28;20439;-47
2022/04/23 02:47:47;;;;;;;12.77;12.37;;;20.30;55.20;;;;;;5088225;28;20449;-47
2022/04/23 02:50:16;;;;;;;12.53;12.03;;;20.30;55.30;;;;;;5101329;28;20437;-49
2022/04/23 02:52:43;;;;;;;13.40;12.90;;;20.20;55.20;;;;;;5100873;28;20478;-49
2022/04/23 02:55:11;;;;;;;13.70;13.20;;;20.20;55.30;;;;;;5100416;28;20438;-49
2022/04/23 02:57:40;;;;;;;12.50;12.03;;;20.20;55.50;;;;;;5099894;28;20451;-51
2022/04/23 03:00:08;;;;;;;12.43;11.93;;;20.20;55.40;;;;;;5099866;28;20469;-50
2022/04/23 03:02:36;;;;;;;12.03;11.53;;;20.20;55.30;;;;;;5099831;28;20473;-47
2022/04/23 03:05:06;;;;;;;13.67;13.07;;;20.20;55.40;;;;;;5100694;28;20458;-47
2022/04/23 03:07:34;;;;;;;12.57;12.17;;;20.20;55.50;;;;;;5100925;28;21138;-47
2022/04/23 03:10:01;;;;;;;12.93;12.33;;;20.10;55.60;;;;;;5101395;28;20871;-49
2022/04/23 03:12:28;;;;;;;12.47;11.97;;;20.20;55.50;;;;;;5101432;28;20463;-48
2022/04/23 03:14:55;;;;;;;13.10;12.60;;;20.10;55.40;;;;;;5101556;28;20482;-47
2022/04/23 03:17:22;;;;;;;12.70;12.20;;;20.10;55.40;;;;;;5096596;28;20462;-49
2022/04/23 03:19:48;;;;;;;13.10;12.60;;;20.10;55.50;;;;;;5080036;28;20443;-47
2022/04/23 03:22:17;;;;;;;13.17;12.77;;;20.10;55.60;;;;;;5080086;28;20460;-46
2022/04/23 03:24:45;;;;;;;12.90;12.50;;;20.10;55.60;;;;;;5080450;28;20439;-47
2022/04/23 03:27:12;;;;;;;12.97;12.47;;;20.10;55.70;;;;;;5082976;28;20444;-49
2022/04/23 03:29:39;;;;;;;13.23;12.63;;;20.10;55.60;;;;;;5100495;28;20443;-49
2022/04/23 03:32:07;;;;;;;13.07;12.67;;;20.10;55.60;;;;;;5100446;28;20529;-48
2022/04/23 03:34:34;;;;;;;12.20;11.77;;;20.10;55.70;;;;;;5100840;28;20486;-49
2022/04/23 03:37:00;;;;;;;12.90;12.40;;;20.10;55.70;;;;;;5084873;28;20448;-49
2022/04/23 03:39:28;;;;;;;13.27;12.50;;;20.10;55.70;;;;;;5080273;28;20444;-47
2022/04/23 03:41:55;;;;;;;12.23;11.83;;;20.10;55.60;;;;;;5079731;28;20980;-49
2022/04/23 03:44:22;;;;;;;13.27;12.77;;;20.00;55.50;;;;;;5080098;28;20439;-47
2022/04/23 03:46:49;;;;;;;12.70;12.30;;;20.00;55.60;;;;;;5088539;28;20444;-49
2022/04/23 03:49:15;;;;;;;13.17;12.60;;;20.00;55.60;;;;;;5080604;28;21046;-47
2022/04/23 03:51:42;;;;;;;12.80;12.40;;;20.00;55.70;;;;;;5079728;28;20470;-47
2022/04/23 03:54:09;;;;;;;12.70;12.20;;;20.00;55.70;;;;;;5079403;28;20483;-49
2022/04/23 03:56:37;;;;;;;12.70;12.20;;;20.00;55.80;;;;;;5089369;28;20450;-49
2022/04/23 03:59:05;;;;;;;12.53;12.13;;;20.00;55.70;;;;;;5097266;28;20542;-48
2022/04/23 04:01:31;;;;;;;13.13;12.63;;;20.00;55.80;;;;;;5096837;28;20462;-50
2022/04/23 04:03:58;;;;;;;13.40;12.90;;;20.00;55.80;;;;;;5098025;28;20446;-49
2022/04/23 04:06:25;;;;;;;13.73;12.93;;;20.00;55.80;;;;;;5089265;28;20446;-47
2022/04/23 04:08:52;;;;;;;12.60;12.20;;;20.00;55.70;;;;;;5078290;28;20944;-49
2022/04/23 04:11:18;;;;;;;12.33;11.93;;;20.00;55.80;;;;;;5078648;28;20463;-48
2022/04/23 04:13:47;;;;;;;11.53;11.23;;;20.00;55.90;;;;;;5078308;28;20483;-50
2022/04/23 04:16:14;;;;;;;12.70;12.30;;;19.90;55.80;;;;;;5085397;28;20446;-48
2022/04/23 04:18:41;;;;;;;12.97;12.57;;;19.90;55.80;;;;;;5097099;28;20442;-47
2022/04/23 04:21:08;;;;;;;13.27;12.77;;;19.90;55.70;;;;;;5096535;28;20446;-48
2022/04/23 04:23:35;;;;;;;13.63;13.23;;;19.90;55.90;;;;;;5095780;28;20439;-49
2022/04/23 04:26:02;;;;;;;14.10;13.60;;;19.90;55.80;;;;;;5089474;28;20451;-49
2022/04/23 04:28:31;;;;;;;14.20;13.70;;;19.90;55.80;;;;;;5074968;28;20455;-49
2022/04/23 04:33:43;;;;;;;14.80;14.30;;;19.90;55.90;;;;;;5077703;28;20605;-49
2022/04/23 04:36:10;;;;;;;14.80;14.20;;;19.80;55.80;;;;;;5085236;28;20457;-47
2022/04/23 04:38:37;;;;;;;13.73;13.23;;;19.90;55.90;;;;;;5095853;28;20442;-47
2022/04/23 04:41:05;;;;;;;14.90;14.40;;;19.90;55.80;;;;;;5095555;28;20458;-48
2022/04/23 04:43:32;;;;;;;15.20;14.50;;;19.80;55.80;;;;;;5096217;28;20807;-49
2022/04/23 04:46:00;;;;;;;14.40;13.90;;;19.90;56.40;;;;;;5075810;28;20443;-49
2022/04/23 04:48:27;;;;;;;12.03;11.63;;;19.80;55.80;;;;;;5076220;28;20513;-50
2022/04/23 04:50:54;;;;;;;15.10;14.60;;;19.80;55.80;;;;;;5075286;28;20470;-51
2022/04/23 04:53:20;;;;;;;12.90;12.50;;;19.80;55.70;;;;;;5074869;28;20870;-47
2022/04/23 04:55:47;;;;;;;12.70;12.30;;;19.80;55.90;;;;;;5079058;28;20443;-48
2022/04/23 04:58:14;;;;;;;12.70;12.30;;;19.80;55.90;;;;;;5093390;28;20450;-47
2022/04/23 05:00:41;;;;;;;12.63;12.20;;;19.80;55.90;;;;;;5094070;28;20963;-47
2022/04/23 05:03:09;;;;;;;12.40;12.00;;;19.80;55.80;;;;;;5090450;28;20468;-47
2022/04/23 05:05:35;;;;;;;12.10;11.70;;;19.80;55.90;;;;;;5073944;28;20446;-49
2022/04/23 05:08:02;;;;;;;12.43;12.03;;;19.80;56.00;;;;;;5074063;28;20445;-48
2022/04/23 05:10:29;;;;;;;12.10;11.70;;;19.80;56.00;;;;;;5079938;28;20474;-47
2022/04/23 05:12:55;;;;;;;12.87;12.27;;;19.80;56.00;;;;;;5077152;28;20464;-50
2022/04/23 05:15:22;;;;;;;12.67;12.27;;;19.80;56.10;;;;;;5078342;28;20479;-48
2022/04/23 05:17:49;;;;;;;11.97;11.57;;;19.70;56.00;;;;;;5077317;28;20909;-49
2022/04/23 05:20:17;;;;;;;13.40;12.90;;;19.80;56.20;;;;;;5076048;28;20469;-60
2022/04/23 05:22:44;;;;;;;12.83;12.33;;;19.80;56.30;;;;;;5093335;28;20467;-58
2022/04/23 05:25:10;;;;;;;12.33;11.93;;;19.90;56.70;;;;;;5095046;28;20461;-51
2022/04/23 05:27:37;;;;;;;12.93;12.53;;;20.00;56.90;;;;;;5094851;28;20439;-48
2022/04/23 05:30:10;;;;;;;13.00;12.60;;;20.00;56.90;;;;;;5095028;28;20442;-54
2022/04/23 05:32:37;;;;;;;12.63;12.23;;;20.10;56.90;;;;;;5077018;28;20467;-51
2022/04/23 05:35:04;;;;;;;13.37;12.87;;;20.20;56.90;;;;;;5074658;28;20486;-50
2022/04/23 05:37:32;;;;;;;12.70;12.30;;;20.20;56.70;;;;;;5074331;28;20509;-48
2022/04/23 05:39:59;;;;;;;13.20;12.80;;;20.30;56.60;;;;;;5083534;28;20450;-49
2022/04/23 05:42:26;;;;;;;12.43;12.03;;;20.40;57.00;;;;;;5094656;28;20497;-49
2022/04/23 05:44:52;;;;;;;12.40;11.97;;;20.40;56.50;;;;;;5094682;28;20434;-51
2022/04/23 05:47:19;;;;;;;12.83;12.33;;;20.40;56.40;;;;;;5093423;28;20446;-51
2022/04/23 05:49:46;;;;;;;12.87;12.40;;;20.40;56.50;;;;;;5074448;28;20534;-50
2022/04/23 05:52:13;;;;;;;12.90;12.40;;;20.50;56.30;;;;;;5074166;28;20463;-51
2022/04/23 05:54:41;;;;;;;13.70;13.20;;;20.50;56.40;;;;;;5074360;28;20483;-51
2022/04/23 05:57:08;;;;;;;12.90;12.40;;;20.50;56.40;;;;;;5078671;28;20489;-50
2022/04/23 05:59:34;;;;;;;13.77;13.27;;;20.50;56.40;;;;;;5091063;28;20958;-51
2022/04/23 06:02:02;;;;;;;13.43;12.93;;;20.50;56.30;;;;;;5094370;28;20462;-51
2022/04/23 06:04:29;;;;;;;12.93;12.43;;;20.50;56.30;;;;;;5094967;28;20529;-49
2022/04/23 06:06:56;;;;;;;12.40;12.00;;;20.80;55.00;;;;;;5079386;28;20451;-52
2022/04/23 06:09:23;;;;;;;13.20;12.70;;;21.20;54.20;;;;;;5074342;28;20475;-52
2022/04/23 06:11:51;;;;;;;12.70;12.30;;;21.40;53.50;;;;;;5073946;28;20471;-52
2022/04/23 06:14:18;;;;;;;13.17;12.67;;;21.70;53.00;;;;;;5073811;28;20482;-49
2022/04/23 06:16:45;;;;;;;12.60;12.20;;;22.00;52.30;;;;;;5075910;28;20454;-50
2022/04/23 06:19:11;;;;;;;11.77;11.37;;;22.30;51.60;;;;;;5074238;28;20444;-52
2022/04/23 06:21:38;;;;;;;12.10;11.70;;;22.50;51.00;;;;;;5073895;28;20466;-49
2022/04/23 06:24:05;;;;;;;12.27;11.87;;;22.60;50.60;;;;;;5073461;28;20444;-51
2022/04/23 06:26:33;;;;;;;12.70;12.30;;;22.80;50.40;;;;;;5073506;28;20450;-48
2022/04/23 06:29:01;;;;;;;11.93;11.50;;;22.90;50.00;;;;;;5077495;28;20447;-57
2022/04/23 06:31:28;;;;;;;13.13;12.63;;;22.90;49.80;;;;;;5074273;28;20547;-52
2022/04/23 06:33:55;;;;;;;12.60;12.10;;;23.10;49.70;;;;;;5073410;28;20444;-59
2022/04/23 06:36:22;;;;;;;13.00;12.50;;;23.10;49.40;;;;;;5085544;28;20443;-47
2022/04/23 06:38:48;;;;;;;11.80;11.40;;;23.10;49.20;;;;;;5092103;28;20541;-46
2022/04/23 06:41:15;;;;;;;12.73;12.23;;;23.10;49.30;;;;;;5093953;28;20506;-48
2022/04/23 06:43:42;;;;;;;12.10;11.70;;;23.30;49.20;;;;;;5093572;28;20461;-44
2022/04/23 06:46:10;;;;;;;12.70;12.30;;;23.40;48.90;;;;;;5093616;28;20536;-46
2022/04/23 06:48:37;;;;;;;12.70;12.30;;;23.50;48.90;;;;;;5091273;28;20447;-50
2022/04/23 06:51:05;;;;;;;13.87;13.37;;;23.60;48.70;;;;;;5073199;28;20842;-47
2022/04/23 06:53:32;;;;;;;14.40;13.90;;;23.60;48.70;;;;;;5073163;28;20534;-50
2022/04/23 06:55:59;;;;;;;12.00;11.60;;;23.50;48.60;;;;;;5073160;28;20843;-49
2022/04/23 06:58:26;;;;;;;12.80;12.30;;;23.50;48.80;;;;;;5079418;28;20446;-46
2022/04/23 07:00:54;;;;;;;13.93;13.43;;;23.50;48.70;;;;;;5093107;28;20950;-50
2022/04/23 07:03:23;;;;;;;12.10;11.70;;;23.50;48.80;;;;;;5093129;28;20504;-51
2022/04/23 07:05:49;;;;;;;12.40;11.90;;;23.70;49.00;;;;;;5092966;28;20443;-55
2022/04/23 07:08:17;;;;;;;11.70;11.30;;;23.90;48.70;;;;;;5087217;28;20462;-48
2022/04/23 07:10:45;;;;;;;12.93;12.50;;;24.00;48.30;;;;;;5072864;28;20447;-52
2022/04/23 07:13:12;;;;;;;12.60;12.20;;;24.10;48.10;;;;;;5072703;28;20550;-49
2022/04/23 07:15:40;;;;;;;12.40;12.00;;;24.10;47.90;;;;;;5072662;28;20483;-52
2022/04/23 07:18:09;;;;;;;12.50;12.10;;;24.20;47.80;;;;;;5075993;28;20898;-49
2022/04/23 07:20:39;;;;;;;12.50;12.03;;;24.20;47.80;;;;;;5092853;28;20521;-53
2022/04/23 07:25:51;;;;;;;12.80;12.40;;;24.30;47.60;;;;;;5092933;28;20418;-52
2022/04/23 07:28:20;;;;;;;13.90;13.30;;;24.30;47.90;;;;;;5090782;28;20947;-53
2022/04/23 07:30:47;;;;;;;12.90;12.43;;;24.30;47.60;;;;;;5091815;28;20497;-51
2022/04/23 07:37:28;;;;;;;11.97;11.57;;;24.40;47.60;;;;;;5072229;28;20475;-53
2022/04/23 07:38:46;;;;;;;12.27;11.87;;;24.40;47.60;;;;;;5080668;28;20457;-50
2022/04/23 07:41:13;;;;;;;13.13;12.73;;;24.40;47.50;;;;;;5092121;28;20998;-53
2022/04/23 07:43:40;;;;;;;13.70;12.93;;;24.40;47.60;;;;;;5092512;28;20442;-51
2022/04/23 07:46:06;;;;;;;13.57;13.07;;;24.40;47.40;;;;;;5092361;28;20446;-51
2022/04/23 07:48:34;;;;;;;13.33;12.93;;;24.50;47.50;;;;;;5085312;28;20451;-51
2022/04/23 07:51:03;;;;;;;12.60;12.20;;;24.60;47.40;;;;;;5072016;28;20452;-48
2022/04/23 07:53:29;;;;;;;13.20;12.80;;;24.70;47.20;;;;;;5072085;28;20820;-52
2022/04/23 07:55:56;;;;;;;13.10;12.70;;;24.70;47.10;;;;;;5071957;28;20838;-53
2022/04/23 07:58:23;;;;;;;13.77;13.27;;;24.80;47.10;;;;;;5090548;28;20450;-54
2022/04/23 08:00:50;;;;;;;13.20;12.70;;;24.90;47.00;;;;;;5092152;28;20815;-52
2022/04/23 08:03:16;;;;;;;12.70;12.20;;;24.90;46.90;;;;;;5092035;28;20469;-46
2022/04/23 08:05:43;;;;;;;12.17;11.77;;;24.90;46.90;;;;;;5092151;28;21018;-48
2022/04/23 08:08:11;;;;;;;13.07;12.57;;;24.80;47.10;;;;;;5074703;28;20447;-49
2022/04/23 08:10:38;;;;;;;13.60;13.10;;;24.90;46.90;;;;;;5071970;28;20505;-49
2022/04/23 08:13:05;;;;;;;12.63;12.23;;;24.90;46.80;;;;;;5072046;28;20471;-53
2022/04/23 08:15:33;;;;;;;13.33;12.93;;;24.90;46.80;;;;;;5071809;28;20479;-49
2022/04/23 08:18:00;;;;;;;12.87;12.47;;;24.90;46.80;;;;;;5086512;28;20451;-50
2022/04/23 08:20:30;;;;;;;12.97;12.50;;;24.90;46.90;;;;;;5091955;28;20447;-52
2022/04/23 08:22:56;;;;;;;13.27;12.87;;;24.90;46.90;;;;;;5092009;28;20979;-49
2022/04/23 08:25:25;;;;;;;13.47;12.90;;;24.70;46.80;;;;;;5091961;28;20919;-50
2022/04/23 08:27:52;;;;;;;13.83;13.23;;;24.70;46.90;;;;;;5077412;28;20443;-50
2022/04/23 08:30:34;;;;;;;14.23;13.73;;;24.50;47.20;;;;;;5071629;28;20444;-55
2022/04/23 08:33:02;;;;;;;13.43;12.90;;;24.40;47.40;;;;;;5071551;28;20459;-52
2022/04/23 08:35:30;;;;;;;13.27;12.77;;;24.40;47.60;;;;;;5071523;28;20925;-48
2022/04/23 08:37:56;;;;;;;12.67;12.27;;;24.40;47.80;;;;;;5072411;28;20439;-50
2022/04/23 08:40:26;;;;;;;14.80;14.00;;;24.50;47.90;;;;;;5071450;28;20452;-47
2022/04/23 08:42:52;;;;;;;13.07;12.60;;;24.70;47.60;;;;;;5071276;28;20478;-48
2022/04/23 08:45:19;;;;;;;13.97;13.30;;;24.80;47.30;;;;;;5071900;28;20942;-46
2022/04/23 08:47:46;;;;;;;13.90;13.40;;;24.90;47.30;;;;;;5082463;28;20439;-48
2022/04/23 08:50:14;;;;;;;13.93;13.23;;;24.90;47.10;;;;;;5095900;28;20557;-51
2022/04/23 08:52:43;;;;;;;13.13;12.60;;;24.90;46.70;;;;;;5095622;28;20459;-50
2022/04/23 08:55:14;;;;;;;14.20;13.50;;;24.90;46.80;;;;;;5077567;28;20471;-52
2022/04/23 08:57:43;;;;;;;14.30;13.60;;;24.90;47.10;;;;;;5075252;28;20443;-52
2022/04/23 09:00:14;;;;;;;15.47;14.57;;;24.90;48.30;;;;;;5075280;28;20836;-46
2022/04/23 09:02:41;;;;;;;14.87;14.07;;;24.70;51.30;;;;;;5085531;28;20943;-48
2022/04/23 09:05:09;;;;;;;15.27;14.47;;;24.60;49.50;;;;;;5095284;28;20951;-47
2022/04/23 09:07:35;;;;;;;15.90;14.90;;;24.40;47.90;;;;;;5095064;28;20818;-46
2022/04/23 09:10:03;;;;;;;15.90;15.07;;;24.30;47.10;;;;;;5095358;28;20935;-50
2022/04/23 09:12:30;;;;;;;14.90;14.30;;;24.20;46.50;;;;;;5088184;28;20908;-48
2022/04/23 09:23:39;;;;;;;15.37;14.57;;;24.20;46.50;;;;;;5074910;28;20847;-48
2022/04/23 09:23:43;;;;;;;18.17;17.27;;;23.80;45.90;;;;;;5075129;28;20423;-46
2022/04/23 09:26:17;;;;;;;16.63;15.83;;;23.70;46.00;;;;;;5082891;28;20534;-48
2022/04/23 09:28:46;;;;;;;17.80;16.90;;;23.70;46.20;;;;;;5094897;28;20784;-46
2022/04/23 09:31:15;;;;;;;17.93;17.13;;;23.70;46.10;;;;;;5094894;28;21045;-48
2022/04/23 09:33:46;;;;;;;17.60;16.70;;;23.70;46.40;;;;;;5094980;28;20863;-48
2022/04/23 09:36:13;;;;;;;18.60;17.70;;;23.60;46.30;;;;;;5087215;28;20482;-49
2022/04/23 09:38:40;;;;;;;17.50;16.70;;;23.50;46.20;;;;;;5074334;28;20448;-48
2022/04/23 09:41:16;;;;;;;18.13;17.20;;;23.50;46.20;;;;;;5074369;28;21048;-48
2022/04/23 09:43:44;;;;;;;17.37;16.57;;;23.40;46.10;;;;;;5074241;28;20511;-46
2022/04/23 09:46:11;;;;;;;18.60;17.70;;;23.40;46.10;;;;;;5094517;28;20492;-46
2022/04/23 09:48:43;;;;;;;19.30;18.40;;;23.30;45.80;;;;;;5094497;28;20507;-46
2022/04/23 09:51:24;;;;;;;17.60;16.80;;;23.20;45.60;;;;;;5094524;28;20559;-47
2022/04/23 09:53:53;;;;;;;17.47;16.57;;;23.20;45.60;;;;;;5093382;28;20438;-48
2022/04/23 09:56:22;;;;;;;16.80;16.00;;;23.10;45.70;;;;;;5074000;28;20556;-49
2022/04/23 09:58:49;;;;;;;16.70;15.80;;;23.10;45.70;;;;;;5073330;28;20450;-49
2022/04/23 10:01:18;;;;;;;16.00;15.30;;;23.10;45.90;;;;;;5073957;28;20456;-51
2022/04/23 10:03:49;;;;;;;16.00;15.10;;;23.10;45.90;;;;;;5087903;28;20453;-51
2022/04/23 10:06:19;;;;;;;17.37;16.37;;;23.10;45.90;;;;;;5094172;28;20802;-48
2022/04/23 10:08:51;;;;;;;15.87;15.10;;;23.10;45.90;;;;;;5094296;28;20805;-51
2022/04/23 10:11:22;;;;;;;16.13;15.13;;;23.00;45.80;;;;;;5094236;28;20470;-48
2022/04/23 10:13:53;;;;;;;17.70;16.80;;;23.00;45.80;;;;;;5079503;28;20451;-51
2022/04/23 10:16:21;;;;;;;17.93;17.03;;;22.90;45.60;;;;;;5073695;28;20475;-47
2022/04/23 10:18:50;;;;;;;17.63;16.80;;;22.90;45.70;;;;;;5073707;28;20451;-48
2022/04/23 10:21:25;;;;;;;17.27;16.50;;;22.80;45.80;;;;;;5073730;28;20464;-48
2022/04/23 10:24:00;;;;;;;17.40;16.40;;;22.80;45.80;;;;;;5073839;28;20454;-48
2022/04/23 10:26:39;;;;;;;18.07;17.07;;;22.80;45.90;;;;;;5053569;28;20447;-47
2022/04/23 10:29:09;;;;;;;17.57;16.77;;;22.80;45.90;;;;;;5075305;28;20811;-46
2022/04/23 10:31:36;;;;;;;17.57;16.67;;;22.80;46.00;;;;;;5093608;28;20459;-50
2022/04/23 10:34:05;;;;;;;16.97;16.17;;;22.80;46.40;;;;;;5093544;28;20504;-46
2022/04/23 10:36:31;;;;;;;18.10;17.30;;;22.70;46.40;;;;;;5089686;28;20490;-47
2022/04/23 10:39:20;;;;;;;18.00;16.80;;;22.70;46.40;;;;;;5073383;28;20447;-46
2022/04/23 10:41:47;;;;;;;17.20;16.10;;;22.60;47.40;;;;;;5073258;28;20490;-47
2022/04/23 10:44:22;;;;;;;16.97;15.97;;;22.60;49.60;;;;;;5073308;28;20455;-50
2022/04/23 10:46:50;;;;;;;17.00;15.73;;;22.50;49.10;;;;;;5073240;28;20438;-51
2022/04/23 10:49:20;;;;;;;16.10;15.00;;;22.60;50.70;;;;;;5079939;28;20932;-49
2022/04/23 10:51:52;;;;;;;17.63;16.37;;;22.50;51.50;;;;;;5093456;28;20470;-47
2022/04/23 10:54:21;;;;;;;18.23;16.73;;;22.50;51.30;;;;;;5093492;28;20445;-46
2022/04/23 10:56:53;;;;;;;17.80;16.60;;;22.60;51.70;;;;;;5093263;28;20485;-50
2022/04/23 10:59:43;;;;;;;17.97;16.87;;;22.60;53.20;;;;;;5093421;28;20446;-51
2022/04/23 11:02:29;;;;;;;18.40;17.40;;;22.60;53.20;;;;;;5080660;28;20517;-53
2022/04/23 11:13:27;;;;;;;17.67;16.77;;;22.60;52.40;;;;;;5087523;28;20991;-47
2022/04/23 11:16:10;;;;;;;15.57;14.70;;;22.60;52.40;;;;;;5072649;28;20856;-47
2022/04/23 11:18:38;;;;;;;17.13;16.13;;;22.60;52.20;;;;;;5072392;28;20484;-50
2022/04/23 11:21:10;;;;;;;16.70;15.93;;;22.50;51.30;;;;;;5072644;28;20925;-51
2022/04/23 11:23:39;;;;;;;16.83;16.00;;;22.40;50.00;;;;;;5072634;28;20443;-52
2022/04/23 11:26:07;;;;;;;17.53;16.53;;;22.40;49.20;;;;;;5082348;28;20443;-49
2022/04/23 11:28:33;;;;;;;16.67;15.77;;;22.30;48.60;;;;;;5092534;28;20447;-52
2022/04/23 11:31:10;;;;;;;17.30;16.50;;;22.40;48.40;;;;;;5092579;28;20439;-50
2022/04/23 11:33:37;;;;;;;16.50;15.60;;;22.40;48.20;;;;;;5093068;28;20504;-55
2022/04/23 11:36:04;;;;;;;17.00;16.20;;;22.50;47.70;;;;;;5088496;28;20471;-58
2022/04/23 11:38:32;;;;;;;17.80;17.00;;;22.50;47.40;;;;;;5079811;28;20442;-51
2022/04/23 11:40:59;;;;;;;17.67;16.60;;;22.40;47.10;;;;;;5092494;28;20443;-55
2022/04/23 11:43:34;;;;;;;17.60;16.70;;;22.40;47.10;;;;;;5092490;28;20451;-58
2022/04/23 11:46:06;;;;;;;17.77;16.97;;;22.40;47.00;;;;;;5092569;28;20939;-51
2022/04/23 11:48:43;;;;;;;18.83;17.93;;;22.40;47.00;;;;;;5074142;28;20821;-50
2022/04/23 11:51:12;;;;;;;17.03;16.23;;;22.40;46.70;;;;;;5071865;28;20466;-51
2022/04/23 11:53:58;;;;;;;17.23;16.33;;;22.30;46.40;;;;;;5072063;28;20447;-52
2022/04/23 11:56:29;;;;;;;17.53;16.73;;;22.30;46.10;;;;;;5071840;28;20483;-50
2022/04/23 11:58:59;;;;;;;16.00;15.20;;;22.20;45.90;;;;;;5076531;28;20801;-57
2022/04/23 12:01:28;;;;;;;17.03;16.23;;;22.10;45.90;;;;;;5092243;28;20463;-52
2022/04/23 12:03:56;;;;;;;17.37;16.57;;;22.30;45.90;;;;;;5092270;28;20482;-60
2022/04/23 12:06:24;;;;;;;17.00;16.10;;;22.30;45.50;;;;;;5081202;28;20446;-59
2022/04/23 12:09:03;;;;;;;18.13;17.23;;;22.40;45.20;;;;;;5091946;28;20461;-60
2022/04/23 12:11:30;;;;;;;16.77;15.90;;;22.50;45.10;;;;;;5091753;28;20469;-58
2022/04/23 12:13:56;;;;;;;17.13;16.43;;;22.50;45.00;;;;;;5091832;28;20446;-53
2022/04/23 12:16:40;;;;;;;16.37;15.63;;;22.60;45.00;;;;;;5080523;28;20482;-48
2022/04/23 12:19:08;;;;;;;16.73;15.97;;;22.60;44.80;;;;;;5072047;28;20439;-47
2022/04/23 12:21:36;;;;;;;17.10;16.30;;;22.70;44.80;;;;;;5082397;28;21010;-46
2022/04/23 12:24:07;;;;;;;16.50;15.70;;;22.70;44.60;;;;;;5091823;28;20785;-48
2022/04/23 12:26:36;;;;;;;15.90;15.10;;;22.70;44.30;;;;;;5091617;28;20437;-50
2022/04/23 12:43:24;;;;;;;16.70;16.00;;;23.10;45.10;;;;;;5072266;22;20829;-46
2022/04/23 12:45:51;;;;;;;15.03;14.33;;;23.10;45.20;;;;;;5046441;28;20459;-58
2022/04/23 12:48:18;;;;;;;15.07;14.47;;;23.20;45.60;;;;;;5051220;28;20444;-56
2022/04/23 12:50:46;;;;;;;15.73;15.03;;;23.20;45.80;;;;;;5051576;28;20952;-46
2022/04/23 12:53:28;;;;;;;16.50;15.80;;;23.20;45.90;;;;;;5034181;28;20547;-59
2022/04/23 12:55:56;;;;;;;16.13;15.40;;;23.20;46.20;;;;;;5030842;28;20488;-46
2022/04/23 12:58:23;;;;;;;16.63;15.90;;;23.20;45.90;;;;;;5031180;28;20445;-45
2022/04/23 13:00:49;;;;;;;15.10;14.50;;;23.20;46.10;;;;;;5031368;28;20445;-45
2022/04/23 13:03:27;;;;;;;15.27;14.67;;;23.20;46.30;;;;;;5031404;28;20475;-46
2022/04/23 13:05:54;;;;;;;14.87;14.20;;;23.30;46.50;;;;;;5036917;28;20965;-45
2022/04/23 13:13:47;;;;;;;16.20;14.80;;;23.30;46.50;;;;;;5047974;28;20436;-45
2022/04/23 13:16:14;;;;;;;15.23;14.47;;;23.30;46.60;;;;;;5051636;28;20491;-52